メインページ
METAR-TAF:

METAR-TAF

空港 :

コスラエ国際空港

コスラエ州, ミクロネシア

緯度: 05-21N, 経度: 162-57E, 海抜: 3m

現時点の気象観測

当レポートは1時間9分前の02:50(UTC)に作成
北東の風 16kt
気温 26°C
湿度 89%
気圧 1010 hPa
視程: 4.8km
高度700ftの千切れ雲あり, 塔状積雲.
高度12000ftの曇り
弱いにわか雨

METAR: PTSA 250250Z 05016KT 3SM -SHRA BKN007TCU OVC120 26/24 A2982 RMK TCU ALQDS

時間: 14:59 (03:59 UTC)

予報

当レポートは4時間19分前の23:40(UTC)に作成
予報は25日の 00時(UTC)から 25日の 24時(UTC)まで有効
北東の風 12kt、最大20ktの突風を伴う
視程: 10km
高度1400ftの雲は散在している
高度4000ftの千切れ雲あり
高度12000ftの千切れ雲あり
近辺でにわか雨
25日の 00時(UTC)から 25日の 03時(UTC)まで一時的に
視程: 4.8km
高度1400ftの千切れ雲あり
高度2500ftの曇り
激しいにわか雨

TAF: PTSA 242340Z 2500/2524 05012G20KT P6SM VCSH SCT014 BKN040 BKN120 TEMPO 2500/2503 3SM +SHRA BKN014 OVC025

4,000以上の空港の気象観測と天気予報(METAR報とTAF報)

利用可能な観測所は地図上に黄色い丸と赤い丸で示す。

丸の上にカーソルを重ねると観測所名を参照できる。

次にクリックすると気象観測と天気予報を参照できる。

マップの切り替え:黒色「×」印の緑ボタンをクリックして拡大、「-」印の緑ボタンをクリックして縮小、緑色の三角印をクリックして隣りの地図に切り替え


METAR-TAF: